Ponciano Arriaga International Airport
MMSP : now visible

Airfield :











YOU CAN JOIN US ON...

 
LOGIN :

Register | Disclaimer

   EN    FR    IT 

 









Legend :    VFR   Marginal VFR   IFR   Intensive IFR   Very Intensive IFR
Visi :
Ceiling :
>= 8 km
>= 3000ft
5 to 8 km
1000 to 3000 ft
1500m to 5 km
500 to 1000 ft
800 to 1500m
200 to 500 ft
< 800m
< 200 ft
Symbols :   Thunderstorms  Fog  Heavy snow  Heavy precipitations  Wind > 20 kt






- Airport Elevation : 6035 ft
- IATA code : SLP


MMSP - Ponciano Arriaga International

CURRENT METAR :
  • 131340Z 10010KT 5SM SCT010 BKN080 18/14 A3042 RMK 8/550 ISOL CI HZ

EXPIRED METARs :
  • 131240Z 08007KT 7SM BKN010 OVC015 16/15 A3041 RMK 8/5//
  • 131143Z 00000KT 7SM BKN010 OVC015 16/15 A3039 RMK SLP162 52008 926 8/5//
  • 131040Z 11004KT 8SM BKN015 OVC020 16/14 A3037 RMK 8/5//
  • 130941Z 10007KT 7SM SCT015 BKN020 16/15 A3036 RMK 8/500

TAF TAF MMSP
Valid from the 13 at 12:00 until the 14 at 12:00 UTC


131146Z 1312/1412 11005KT P6SM BKN015 OVC020 TX23/1321Z TN15/1313Z
BECMG 1314/1316 SCT020
FM132000 09010KT P6SM SCT020CB
FM140300 13010KT P6SM SCT020 BKN230
FM140600 09005KT P6SM BKN015
MMFR FIR / North America



MET'MAP, your aeronautical weather chart ! - Copyright ORBIFLY December 2007 - Disclaimer

ORBIFLY MET'MAP TEAM :

Programming & Development : Alexandra Zaïnal
Original concept : Baudouin d'Aumeries
Technical & hardware support : Manuel Goepfert
Assistance : Marc-Olivier Méhu




SOURCES & CREDITS :

   NOAA       Earth
Advisory